createdAt,value
2024-03-20T00:00:23.268Z,25.29
2024-03-20T00:01:46.994Z,23.59
2024-03-20T00:02:48.501Z,23.82
2024-03-20T00:03:50.178Z,21.95
2024-03-20T00:04:52.079Z,20.17
2024-03-20T00:05:54.643Z,19.63
2024-03-20T00:06:56.214Z,20.52
2024-03-20T00:07:57.821Z,20.18
2024-03-20T00:09:01.398Z,19.99
2024-03-20T00:10:03.723Z,20.83
2024-03-20T00:11:07.313Z,23.65
2024-03-20T00:12:09.165Z,25.53
2024-03-20T00:13:10.663Z,24.46
2024-03-20T00:14:12.204Z,23.48
2024-03-20T00:15:13.852Z,22.01
2024-03-20T00:16:15.545Z,22.96
2024-03-20T00:17:17.172Z,24.95
2024-03-20T00:18:18.821Z,38.20
2024-03-20T00:19:20.912Z,40.46
2024-03-20T00:20:25.391Z,45.31
2024-03-20T00:21:27.270Z,42.13
2024-03-20T00:22:30.776Z,38.73
2024-03-20T00:23:32.387Z,40.47
2024-03-20T00:24:34.352Z,36.50
2024-03-20T00:25:35.938Z,33.78
2024-03-20T00:26:37.447Z,36.63
2024-03-20T00:27:39.017Z,43.67
2024-03-20T00:28:40.625Z,45.92
2024-03-20T00:29:42.302Z,51.41
2024-03-20T00:30:43.916Z,52.95
2024-03-20T00:31:45.428Z,52.91
2024-03-20T00:32:47.041Z,48.72
2024-03-20T00:33:48.650Z,47.28
2024-03-20T00:34:50.322Z,42.63
2024-03-20T00:35:51.844Z,40.07
2024-03-20T00:36:53.418Z,37.18
2024-03-20T00:37:55.048Z,32.39
2024-03-20T00:38:56.643Z,25.80
2024-03-20T00:39:58.259Z,26.98
2024-03-20T00:41:00.127Z,26.60
2024-03-20T00:42:01.704Z,29.15
2024-03-20T00:43:03.387Z,28.13
2024-03-20T00:44:05.151Z,26.42
2024-03-20T00:45:07.125Z,27.53
2024-03-20T00:46:08.616Z,29.16
2024-03-20T00:47:10.328Z,31.33
2024-03-20T00:48:12.129Z,32.19
2024-03-20T00:49:13.705Z,30.86
2024-03-20T00:50:15.527Z,30.32
2024-03-20T00:51:17.179Z,31.67
2024-03-20T00:52:18.819Z,31.04
2024-03-20T00:53:20.538Z,30.91
2024-03-20T00:54:22.149Z,28.49
2024-03-20T00:55:24.091Z,25.06
2024-03-20T00:56:25.697Z,25.05
2024-03-20T00:57:27.406Z,24.17
2024-03-20T00:58:30.782Z,22.44
2024-03-20T00:59:32.439Z,22.25
2024-03-20T01:00:33.988Z,21.00
2024-03-20T01:01:35.797Z,21.05
2024-03-20T01:02:37.349Z,20.28
2024-03-20T01:03:39.036Z,20.44
2024-03-20T01:04:40.548Z,20.74
2024-03-20T01:05:42.336Z,19.74
2024-03-20T01:06:44.793Z,20.48
2024-03-20T01:07:46.357Z,22.18
2024-03-20T01:08:47.935Z,22.32
2024-03-20T01:09:49.473Z,21.97
2024-03-20T01:10:51.197Z,27.98
2024-03-20T01:11:52.775Z,29.35
2024-03-20T01:12:54.322Z,27.55
2024-03-20T01:13:55.848Z,25.97
2024-03-20T01:14:57.395Z,29.61
2024-03-20T01:15:59.492Z,28.48
2024-03-20T01:17:01.046Z,28.97
2024-03-20T01:18:03.042Z,30.47
2024-03-20T01:19:04.544Z,30.98
2024-03-20T01:20:08.156Z,33.73
2024-03-20T01:21:10.053Z,35.77
2024-03-20T01:22:12.183Z,36.98
2024-03-20T01:23:14.347Z,38.21
2024-03-20T01:24:15.863Z,39.89
2024-03-20T01:25:18.044Z,39.91
2024-03-20T01:26:20.900Z,37.78
2024-03-20T01:27:22.462Z,35.93
2024-03-20T01:28:27.921Z,33.87
2024-03-20T01:29:29.737Z,34.93
2024-03-20T01:30:31.261Z,32.29
2024-03-20T01:31:32.874Z,30.80
2024-03-20T01:32:34.484Z,32.44
2024-03-20T01:33:36.016Z,31.65
2024-03-20T01:34:37.744Z,32.48
2024-03-20T01:35:39.322Z,32.58
2024-03-20T01:36:40.923Z,31.20
2024-03-20T01:37:42.459Z,33.23
2024-03-20T01:38:44.046Z,32.93
2024-03-20T01:39:45.606Z,34.44
2024-03-20T01:40:47.130Z,34.83
2024-03-20T01:41:48.879Z,33.53
2024-03-20T01:42:54.569Z,31.68
2024-03-20T01:43:56.193Z,31.60
2024-03-20T01:45:21.384Z,31.52
2024-03-20T01:46:35.983Z,31.61
2024-03-20T01:47:37.530Z,32.09
2024-03-20T01:48:39.233Z,32.41
2024-03-20T01:49:41.225Z,33.07
2024-03-20T01:50:44.415Z,33.21
2024-03-20T01:51:47.350Z,35.04
2024-03-20T01:52:56.084Z,33.71
2024-03-20T01:53:59.436Z,32.27
2024-03-20T01:55:02.294Z,33.41
2024-03-20T01:56:04.103Z,33.97
2024-03-20T01:57:05.784Z,33.22
2024-03-20T01:58:07.738Z,31.85
2024-03-20T01:59:10.404Z,33.16
2024-03-20T02:00:14.019Z,34.01
2024-03-20T02:01:16.637Z,33.17
2024-03-20T02:02:18.298Z,32.11
2024-03-20T02:03:20.246Z,34.89
2024-03-20T02:04:21.862Z,35.29
2024-03-20T02:05:23.760Z,35.64
2024-03-20T02:06:28.420Z,36.66
2024-03-20T02:07:30.038Z,35.22
2024-03-20T02:08:31.761Z,35.92
2024-03-20T02:09:33.352Z,37.07
2024-03-20T02:10:34.963Z,37.10
2024-03-20T02:11:36.590Z,38.09
2024-03-20T02:12:38.637Z,37.23
2024-03-20T02:13:47.313Z,35.55
2024-03-20T02:14:48.871Z,35.44
2024-03-20T02:15:50.470Z,35.73
2024-03-20T02:16:52.703Z,35.14
2024-03-20T02:17:54.377Z,34.27
2024-03-20T02:18:56.744Z,33.75
2024-03-20T02:19:58.264Z,34.83
2024-03-20T02:21:06.037Z,35.32
2024-03-20T02:22:07.558Z,37.50
2024-03-20T02:23:09.739Z,36.78
2024-03-20T02:24:11.235Z,35.72
2024-03-20T02:25:13.005Z,34.98
2024-03-20T02:26:14.616Z,37.20
2024-03-20T02:27:16.580Z,39.15
2024-03-20T02:28:18.307Z,38.99
2024-03-20T02:29:19.843Z,35.59
2024-03-20T02:30:21.818Z,36.16
2024-03-20T02:31:23.437Z,37.38
2024-03-20T02:32:25.403Z,37.13
2024-03-20T02:33:27.651Z,36.34
2024-03-20T02:34:29.304Z,36.56
2024-03-20T02:35:30.801Z,36.77
2024-03-20T02:36:32.377Z,37.94
2024-03-20T02:37:33.999Z,38.49
2024-03-20T02:38:38.446Z,37.32
2024-03-20T02:39:39.947Z,38.80
2024-03-20T02:40:41.430Z,37.35
2024-03-20T02:41:43.953Z,37.65
2024-03-20T02:42:45.490Z,36.60
2024-03-20T02:43:47.096Z,36.58
2024-03-20T02:44:49.668Z,37.24
2024-03-20T02:45:51.448Z,37.05
2024-03-20T02:46:52.949Z,36.28
2024-03-20T02:47:54.496Z,37.10
2024-03-20T02:48:56.037Z,37.10
2024-03-20T02:49:58.244Z,38.13
2024-03-20T02:50:59.727Z,38.02
2024-03-20T02:52:01.786Z,37.95
2024-03-20T02:53:04.672Z,38.82
2024-03-20T02:54:06.267Z,39.18
2024-03-20T02:55:08.540Z,39.05
2024-03-20T02:56:10.330Z,38.42
2024-03-20T02:57:11.852Z,36.82
2024-03-20T02:58:13.665Z,39.25
2024-03-20T02:59:15.243Z,40.30
2024-03-20T03:00:17.740Z,38.56
2024-03-20T03:01:19.262Z,38.87
2024-03-20T03:02:20.781Z,38.44
2024-03-20T03:03:22.319Z,38.42
2024-03-20T03:04:24.019Z,36.84
2024-03-20T03:05:27.438Z,36.96
2024-03-20T03:06:28.984Z,35.52
2024-03-20T03:07:31.525Z,36.04
2024-03-20T03:08:33.376Z,37.95
2024-03-20T03:09:35.020Z,39.63
2024-03-20T03:10:36.520Z,38.31
2024-03-20T03:11:38.092Z,38.19
2024-03-20T03:12:39.661Z,38.08
2024-03-20T03:13:42.225Z,38.03
2024-03-20T03:14:49.281Z,39.56
2024-03-20T03:15:52.507Z,41.47
2024-03-20T03:16:54.200Z,40.84
2024-03-20T03:17:56.008Z,40.90
2024-03-20T03:18:57.629Z,39.77
2024-03-20T03:19:59.240Z,38.59
2024-03-20T03:21:00.823Z,36.14
2024-03-20T03:22:02.496Z,37.18
2024-03-20T03:23:04.311Z,37.36
2024-03-20T03:24:06.270Z,37.61
2024-03-20T03:25:11.706Z,38.95
2024-03-20T03:26:13.941Z,39.05
2024-03-20T03:27:15.582Z,39.11
2024-03-20T03:28:17.059Z,39.35
2024-03-20T03:29:18.617Z,38.91
2024-03-20T03:30:20.182Z,43.91
2024-03-20T03:31:21.753Z,40.94
2024-03-20T03:32:23.225Z,39.30
2024-03-20T03:33:24.789Z,38.81
2024-03-20T03:34:26.374Z,37.71
2024-03-20T03:35:28.491Z,38.97
2024-03-20T03:36:32.438Z,39.28
2024-03-20T03:37:34.883Z,38.31
2024-03-20T03:38:36.653Z,38.09
2024-03-20T03:39:38.190Z,37.42
2024-03-20T03:40:39.714Z,38.56
2024-03-20T03:41:41.297Z,41.42
2024-03-20T03:42:42.896Z,43.49
2024-03-20T03:43:44.559Z,42.71
2024-03-20T03:44:46.932Z,42.05
2024-03-20T03:45:48.631Z,41.76
2024-03-20T03:46:51.963Z,42.64
2024-03-20T03:47:53.457Z,42.15
2024-03-20T03:48:54.950Z,42.91
2024-03-20T03:49:57.418Z,44.56
2024-03-20T03:50:59.101Z,40.18
2024-03-20T03:52:00.784Z,42.31
2024-03-20T03:53:02.410Z,42.63
2024-03-20T03:54:03.949Z,42.45
2024-03-20T03:55:05.801Z,42.33
2024-03-20T03:56:07.292Z,46.31
2024-03-20T03:57:08.754Z,45.47
2024-03-20T03:58:10.794Z,47.03
2024-03-20T03:59:12.304Z,47.31
2024-03-20T04:00:15.366Z,47.31
2024-03-20T04:01:16.939Z,46.53
2024-03-20T04:02:18.450Z,46.93
2024-03-20T04:03:23.913Z,47.89
2024-03-20T04:04:25.465Z,47.84
2024-03-20T04:05:27.449Z,48.46
2024-03-20T04:06:29.153Z,47.35
2024-03-20T04:07:31.556Z,48.21
2024-03-20T04:08:33.136Z,50.06
2024-03-20T04:09:34.659Z,50.00
2024-03-20T04:10:37.490Z,48.55
2024-03-20T04:11:38.995Z,49.86
2024-03-20T04:12:40.477Z,49.20
2024-03-20T04:13:42.650Z,47.75
2024-03-20T04:14:45.681Z,50.11
2024-03-20T04:15:47.770Z,51.35
2024-03-20T04:16:49.239Z,47.28
2024-03-20T04:17:50.826Z,48.94
2024-03-20T04:18:52.427Z,49.24
2024-03-20T04:19:54.279Z,49.90
2024-03-20T04:20:55.912Z,48.88
2024-03-20T04:21:58.648Z,48.08
2024-03-20T04:23:00.216Z,49.72
2024-03-20T04:24:01.887Z,49.47
2024-03-20T04:25:04.271Z,46.82
2024-03-20T04:26:06.063Z,45.39
2024-03-20T04:27:07.551Z,47.39
2024-03-20T04:28:10.190Z,46.97
2024-03-20T04:29:12.000Z,47.18
2024-03-20T04:30:13.536Z,48.82
2024-03-20T04:31:15.237Z,47.84
2024-03-20T04:32:16.730Z,47.80
2024-03-20T04:33:18.216Z,47.21
2024-03-20T04:34:19.867Z,48.68
2024-03-20T04:35:21.500Z,48.44
2024-03-20T04:36:23.282Z,49.52
2024-03-20T04:37:24.913Z,46.50
2024-03-20T04:38:26.490Z,50.25
2024-03-20T04:39:29.723Z,51.09
2024-03-20T04:40:31.447Z,52.05
2024-03-20T04:41:34.021Z,44.73
2024-03-20T04:42:35.701Z,52.11
2024-03-20T04:43:37.359Z,62.85
2024-03-20T04:44:39.983Z,53.79
2024-03-20T04:45:41.562Z,50.51
2024-03-20T04:46:43.193Z,55.66
2024-03-20T04:47:44.769Z,75.01
2024-03-20T04:48:46.371Z,65.09
2024-03-20T04:49:47.962Z,51.19
2024-03-20T04:50:49.484Z,48.76
2024-03-20T04:51:51.024Z,121.53
2024-03-20T04:52:52.533Z,60.97
2024-03-20T04:53:54.040Z,47.23
2024-03-20T04:54:56.993Z,156.12
2024-03-20T04:55:58.534Z,189.99
2024-03-20T04:57:00.080Z,47.47
2024-03-20T04:58:01.640Z,147.70
2024-03-20T04:59:03.129Z,54.44
2024-03-20T05:00:13.975Z,91.54
2024-03-20T05:01:15.761Z,73.65
2024-03-20T05:02:17.568Z,65.09
2024-03-20T05:03:19.063Z,47.82
2024-03-20T05:04:20.595Z,63.62
2024-03-20T05:05:22.357Z,49.41
2024-03-20T05:06:23.961Z,54.07
2024-03-20T05:07:25.606Z,56.59
2024-03-20T05:08:27.423Z,67.78
2024-03-20T05:09:29.067Z,54.24
2024-03-20T05:10:30.582Z,91.26
2024-03-20T05:11:32.478Z,58.46
2024-03-20T05:12:34.940Z,60.07
2024-03-20T05:13:36.555Z,123.51
2024-03-20T05:14:38.146Z,89.18
2024-03-20T05:15:40.139Z,85.83
2024-03-20T05:16:44.268Z,95.66
2024-03-20T05:17:46.232Z,69.75
2024-03-20T05:18:47.712Z,62.24
2024-03-20T05:19:49.217Z,60.11
2024-03-20T05:20:50.715Z,63.84
2024-03-20T05:21:52.287Z,71.21
2024-03-20T05:22:53.863Z,54.51
2024-03-20T05:23:55.400Z,77.87
2024-03-20T05:24:56.944Z,78.86
2024-03-20T05:25:59.042Z,85.16
2024-03-20T05:27:00.861Z,75.95
2024-03-20T05:28:02.633Z,94.04
2024-03-20T05:29:04.266Z,125.42
2024-03-20T05:30:06.722Z,133.74
2024-03-20T05:31:08.357Z,175.17
2024-03-20T05:32:10.632Z,154.19
2024-03-20T05:33:12.692Z,136.61
2024-03-20T05:34:14.198Z,92.20
2024-03-20T05:35:15.768Z,64.84
2024-03-20T05:36:17.386Z,57.22
2024-03-20T05:37:18.899Z,57.14
2024-03-20T05:38:20.445Z,53.14
2024-03-20T05:39:21.991Z,43.76
2024-03-20T05:40:23.971Z,44.81
2024-03-20T05:41:25.586Z,43.31
2024-03-20T05:42:27.356Z,43.49
2024-03-20T05:43:28.961Z,43.23
2024-03-20T05:44:30.719Z,42.92
2024-03-20T05:45:32.345Z,44.36
2024-03-20T05:46:34.437Z,43.38
2024-03-20T05:47:35.959Z,44.19
2024-03-20T05:48:42.627Z,45.23
2024-03-20T05:49:44.364Z,44.75
2024-03-20T05:50:45.852Z,42.32
2024-03-20T05:51:48.505Z,43.59
2024-03-20T05:52:49.993Z,45.02
2024-03-20T05:53:51.622Z,44.25
2024-03-20T05:54:53.299Z,46.07
2024-03-20T05:55:55.429Z,43.94
2024-03-20T05:56:56.929Z,44.30
2024-03-20T05:57:58.443Z,50.93
2024-03-20T05:59:00.018Z,63.33
2024-03-20T06:00:02.131Z,65.01
2024-03-20T06:01:06.018Z,54.95
2024-03-20T06:02:07.613Z,70.56
2024-03-20T06:03:09.513Z,68.87
2024-03-20T06:04:11.418Z,94.17
2024-03-20T06:05:13.378Z,98.04
2024-03-20T06:06:14.991Z,93.91
2024-03-20T06:07:16.497Z,98.46
2024-03-20T06:08:18.045Z,105.88
2024-03-20T06:09:19.716Z,107.55
2024-03-20T06:10:21.834Z,80.78
2024-03-20T06:11:23.463Z,66.66
2024-03-20T06:12:26.048Z,51.17
2024-03-20T06:13:28.528Z,49.38
2024-03-20T06:14:31.055Z,72.25
2024-03-20T06:15:34.811Z,72.35
2024-03-20T06:16:37.421Z,63.20
2024-03-20T06:17:39.175Z,50.70
2024-03-20T06:18:41.046Z,40.67
2024-03-20T06:19:42.673Z,36.96
2024-03-20T06:20:44.275Z,37.03
2024-03-20T06:21:45.896Z,35.90
2024-03-20T06:22:47.486Z,43.72
2024-03-20T06:23:49.118Z,39.00
2024-03-20T06:24:51.043Z,43.74
2024-03-20T06:25:52.532Z,43.65
2024-03-20T06:26:54.061Z,42.28
2024-03-20T06:27:55.683Z,36.34
2024-03-20T06:28:57.268Z,37.48
2024-03-20T06:29:59.097Z,34.76
2024-03-20T06:31:00.680Z,33.87
2024-03-20T06:32:02.307Z,33.94
2024-03-20T06:33:06.288Z,33.31
2024-03-20T06:34:11.418Z,33.16
2024-03-20T06:35:13.793Z,36.20
2024-03-20T06:36:15.530Z,33.74
2024-03-20T06:37:18.026Z,32.12
2024-03-20T06:38:19.939Z,32.08
2024-03-20T06:39:21.539Z,31.35
2024-03-20T06:40:26.291Z,30.80
2024-03-20T06:41:28.077Z,30.71
2024-03-20T06:42:29.659Z,32.58
2024-03-20T06:43:34.741Z,30.64
2024-03-20T06:44:36.447Z,29.98
2024-03-20T06:45:43.329Z,31.40
2024-03-20T06:46:45.544Z,30.38
2024-03-20T06:47:47.052Z,28.51
2024-03-20T06:48:48.663Z,29.13
2024-03-20T06:49:51.105Z,27.58
2024-03-20T06:50:52.793Z,27.20
2024-03-20T06:51:54.332Z,29.27
2024-03-20T06:52:58.110Z,31.12
2024-03-20T06:54:01.559Z,28.40
2024-03-20T06:55:03.407Z,28.24
2024-03-20T06:56:06.079Z,26.22
2024-03-20T06:57:09.359Z,27.75
2024-03-20T06:58:12.033Z,26.97
2024-03-20T06:59:14.648Z,28.63
2024-03-20T07:00:19.162Z,30.17
2024-03-20T07:01:20.852Z,32.84
2024-03-20T07:02:22.348Z,29.65
2024-03-20T07:03:24.021Z,29.58
2024-03-20T07:04:30.505Z,29.13
2024-03-20T07:05:32.475Z,29.78
2024-03-20T07:06:34.178Z,28.93
2024-03-20T07:07:35.765Z,30.50
2024-03-20T07:08:37.619Z,30.74
2024-03-20T07:09:39.237Z,30.42
2024-03-20T07:10:40.741Z,30.26
2024-03-20T07:11:45.436Z,30.36
2024-03-20T07:12:48.664Z,29.66
2024-03-20T07:13:50.250Z,29.71
2024-03-20T07:14:51.822Z,32.65
2024-03-20T07:15:53.361Z,30.67
2024-03-20T07:16:59.651Z,30.88
2024-03-20T07:18:03.525Z,29.01
2024-03-20T07:19:05.399Z,29.84
2024-03-20T07:20:09.714Z,29.41
2024-03-20T07:21:11.439Z,28.44
2024-03-20T07:22:15.613Z,27.45
2024-03-20T07:23:17.339Z,26.92
2024-03-20T07:24:18.890Z,27.39
2024-03-20T07:25:22.272Z,25.83
2024-03-20T07:26:23.813Z,27.39
2024-03-20T07:27:25.465Z,30.42
2024-03-20T07:28:27.000Z,31.50
2024-03-20T07:29:30.122Z,32.05
2024-03-20T07:30:31.776Z,28.74
2024-03-20T07:31:38.427Z,27.31
2024-03-20T07:32:40.605Z,25.31
2024-03-20T07:33:42.229Z,23.43
2024-03-20T07:34:44.514Z,25.84
2024-03-20T07:35:47.619Z,27.40
2024-03-20T07:36:49.194Z,24.95
2024-03-20T07:37:54.154Z,24.09
2024-03-20T07:38:57.121Z,22.50
2024-03-20T07:39:58.750Z,24.23
2024-03-20T07:41:00.289Z,26.75
2024-03-20T07:42:03.778Z,27.77
2024-03-20T07:43:05.402Z,30.71
2024-03-20T07:44:06.947Z,30.46
2024-03-20T07:45:09.158Z,30.33
2024-03-20T07:46:13.687Z,27.88
2024-03-20T07:47:15.608Z,27.18
2024-03-20T07:48:17.158Z,28.29
2024-03-20T07:49:18.744Z,28.35
2024-03-20T07:50:20.432Z,28.26
2024-03-20T07:51:21.949Z,28.22
2024-03-20T07:52:26.271Z,29.02
2024-03-20T07:53:29.764Z,28.17
2024-03-20T07:54:31.370Z,28.54
2024-03-20T07:55:33.267Z,27.19
2024-03-20T07:56:34.947Z,28.05
2024-03-20T07:57:36.619Z,28.10
2024-03-20T07:58:38.528Z,26.65
2024-03-20T07:59:40.085Z,25.39
2024-03-20T08:00:41.661Z,26.96
2024-03-20T08:01:43.221Z,28.15
2024-03-20T08:02:45.343Z,29.30
2024-03-20T08:03:49.425Z,28.37
2024-03-20T08:04:50.970Z,28.58
2024-03-20T08:05:52.469Z,29.14
2024-03-20T08:06:54.761Z,29.43
2024-03-20T08:07:56.302Z,30.94
2024-03-20T08:08:57.874Z,31.94
2024-03-20T08:09:59.437Z,34.75
2024-03-20T08:11:01.279Z,34.75
2024-03-20T08:12:03.109Z,34.49
2024-03-20T08:13:04.765Z,34.17
2024-03-20T08:14:09.063Z,30.33
2024-03-20T08:15:11.002Z,28.68
2024-03-20T08:16:12.593Z,28.44
2024-03-20T08:17:14.198Z,27.98
2024-03-20T08:18:16.904Z,27.02
2024-03-20T08:19:18.816Z,27.55
2024-03-20T08:20:22.668Z,27.14
2024-03-20T08:21:24.549Z,28.09
2024-03-20T08:22:26.798Z,27.33
2024-03-20T08:23:28.602Z,27.24
2024-03-20T08:24:30.248Z,27.32
2024-03-20T08:25:32.170Z,26.35
2024-03-20T08:26:33.808Z,27.09
2024-03-20T08:27:36.065Z,27.02
2024-03-20T08:28:37.698Z,27.65
2024-03-20T08:29:39.374Z,27.40
2024-03-20T08:30:40.862Z,28.74
2024-03-20T08:31:42.613Z,28.39
2024-03-20T08:32:44.206Z,27.41
2024-03-20T08:33:46.132Z,28.25
2024-03-20T08:34:47.903Z,27.30
2024-03-20T08:35:56.132Z,28.32
2024-03-20T08:36:57.726Z,27.99
2024-03-20T08:37:59.200Z,28.05
2024-03-20T08:39:00.812Z,27.23
2024-03-20T08:40:03.994Z,28.44
2024-03-20T08:41:05.976Z,28.78
2024-03-20T08:42:09.572Z,28.90
2024-03-20T08:43:19.839Z,29.62
2024-03-20T08:44:24.837Z,28.51
2024-03-20T08:45:26.486Z,28.89
2024-03-20T08:46:28.384Z,28.34
2024-03-20T08:47:30.739Z,25.03
2024-03-20T08:48:32.402Z,24.92
2024-03-20T08:49:37.643Z,25.20
2024-03-20T08:50:44.701Z,26.68
2024-03-20T08:51:48.380Z,27.99
2024-03-20T08:52:50.770Z,27.39
2024-03-20T08:53:52.335Z,28.33
2024-03-20T08:54:53.875Z,26.82
2024-03-20T08:55:56.362Z,26.93
2024-03-20T08:56:57.897Z,27.57
2024-03-20T08:57:59.496Z,28.94
2024-03-20T08:59:01.347Z,28.26
2024-03-20T09:00:06.875Z,28.08
2024-03-20T09:01:08.540Z,29.31
2024-03-20T09:02:10.327Z,30.24
2024-03-20T09:03:14.639Z,28.90
2024-03-20T09:04:16.561Z,27.79
2024-03-20T09:05:18.449Z,27.68
2024-03-20T09:06:20.109Z,26.57
2024-03-20T09:07:21.694Z,27.12
2024-03-20T09:08:23.252Z,27.84
2024-03-20T09:09:25.078Z,32.20
2024-03-20T09:10:26.611Z,34.27
2024-03-20T09:11:29.085Z,32.44
2024-03-20T09:12:30.934Z,32.07
2024-03-20T09:13:32.603Z,32.17
2024-03-20T09:14:34.718Z,30.31
2024-03-20T09:15:36.321Z,31.24
2024-03-20T09:16:37.889Z,34.57
2024-03-20T09:17:39.585Z,32.42
2024-03-20T09:18:41.964Z,33.17
2024-03-20T09:19:43.555Z,33.12
2024-03-20T09:20:45.044Z,32.26
2024-03-20T09:21:46.873Z,32.65
2024-03-20T09:22:49.893Z,32.96
2024-03-20T09:23:51.639Z,32.50
2024-03-20T09:24:53.152Z,34.34
2024-03-20T09:25:54.703Z,34.40
2024-03-20T09:26:56.610Z,33.89
2024-03-20T09:28:00.459Z,32.66
2024-03-20T09:29:02.032Z,32.62
2024-03-20T09:30:04.226Z,33.20
2024-03-20T09:31:05.823Z,32.68
2024-03-20T09:32:08.757Z,29.79
2024-03-20T09:33:11.503Z,28.12
2024-03-20T09:34:13.091Z,27.98
2024-03-20T09:35:14.735Z,26.29
2024-03-20T09:36:16.498Z,27.25
2024-03-20T09:37:19.900Z,26.84
2024-03-20T09:38:21.474Z,26.76
2024-03-20T09:39:23.682Z,27.42
2024-03-20T09:40:27.107Z,27.54
2024-03-20T09:41:35.390Z,26.61
2024-03-20T09:42:39.850Z,26.30
2024-03-20T09:43:41.834Z,27.33
2024-03-20T09:44:43.708Z,27.74
2024-03-20T09:45:45.543Z,27.56
2024-03-20T09:46:51.263Z,26.87
2024-03-20T09:47:56.249Z,27.76
2024-03-20T09:48:57.895Z,27.07
2024-03-20T09:50:00.293Z,27.45
2024-03-20T09:51:02.248Z,27.37
2024-03-20T09:52:05.285Z,28.14
2024-03-20T09:53:08.816Z,27.49
2024-03-20T09:54:10.486Z,28.29
2024-03-20T09:55:17.271Z,27.04
2024-03-20T09:56:21.759Z,26.69
2024-03-20T09:57:25.144Z,27.74
2024-03-20T09:58:27.212Z,28.48
2024-03-20T09:59:32.251Z,27.27
2024-03-20T10:00:33.816Z,27.31
2024-03-20T10:01:35.896Z,27.56
2024-03-20T10:02:37.439Z,27.81
2024-03-20T10:03:40.180Z,27.25
2024-03-20T10:04:49.541Z,27.16
2024-03-20T10:05:57.335Z,26.47
2024-03-20T10:06:58.963Z,26.83
2024-03-20T10:08:00.588Z,26.94
2024-03-20T10:09:09.987Z,26.59
2024-03-20T10:10:14.264Z,27.18
2024-03-20T10:11:16.021Z,26.43
2024-03-20T10:12:17.963Z,25.78
2024-03-20T10:13:19.530Z,26.17
2024-03-20T10:14:22.979Z,26.09
2024-03-20T10:15:25.102Z,25.78
2024-03-20T10:16:30.373Z,25.91
2024-03-20T10:17:34.686Z,24.56
2024-03-20T10:18:36.419Z,24.15
2024-03-20T10:19:39.452Z,22.37
2024-03-20T10:20:40.986Z,23.03
2024-03-20T10:21:44.634Z,23.17
2024-03-20T10:22:56.694Z,22.38
2024-03-20T10:24:00.239Z,23.42
2024-03-20T10:25:01.848Z,22.58
2024-03-20T10:26:03.658Z,22.77
2024-03-20T10:27:08.109Z,22.76
2024-03-20T10:28:14.894Z,23.67
2024-03-20T10:29:20.573Z,22.50
2024-03-20T10:30:31.508Z,22.50
2024-03-20T10:31:36.032Z,23.49
2024-03-20T10:32:39.457Z,23.39
2024-03-20T10:33:44.404Z,23.23
2024-03-20T10:34:48.785Z,22.60
2024-03-20T10:35:53.550Z,22.34
2024-03-20T10:36:56.231Z,22.33
2024-03-20T10:37:58.700Z,23.57
2024-03-20T10:39:12.177Z,23.37
2024-03-20T10:40:22.755Z,23.33
2024-03-20T10:41:24.978Z,23.39
2024-03-20T10:42:29.156Z,22.94
2024-03-20T10:43:30.695Z,22.97
2024-03-20T10:44:33.222Z,23.18
2024-03-20T10:45:37.165Z,23.10
2024-03-20T10:46:40.608Z,21.68
2024-03-20T10:47:45.352Z,21.59
2024-03-20T10:48:49.585Z,23.40
2024-03-20T10:49:51.622Z,22.49
2024-03-20T10:50:55.174Z,20.46
2024-03-20T10:51:57.257Z,21.23
2024-03-20T10:52:59.913Z,21.46
2024-03-20T10:54:02.354Z,20.74
2024-03-20T10:55:07.134Z,21.20
2024-03-20T10:56:21.177Z,22.02
2024-03-20T10:57:24.253Z,22.07
2024-03-20T10:58:26.023Z,22.37
2024-03-20T10:59:32.287Z,21.18
2024-03-20T11:00:35.071Z,20.50
2024-03-20T11:01:38.129Z,20.58
2024-03-20T11:02:39.990Z,20.62
2024-03-20T11:03:52.408Z,20.28
2024-03-20T11:04:53.999Z,20.54
2024-03-20T11:05:55.592Z,20.23
2024-03-20T11:06:58.810Z,20.31
2024-03-20T11:08:01.304Z,20.49
2024-03-20T11:09:06.500Z,20.30
2024-03-20T11:10:27.730Z,21.18
2024-03-20T11:11:30.595Z,20.25
2024-03-20T11:12:36.568Z,20.30
2024-03-20T11:13:39.112Z,21.42
2024-03-20T11:14:44.880Z,20.86
2024-03-20T11:15:52.621Z,20.65
2024-03-20T11:17:00.496Z,20.58
2024-03-20T11:18:02.784Z,21.69
2024-03-20T11:19:07.162Z,23.14
2024-03-20T11:20:33.310Z,22.11
2024-03-20T11:21:37.221Z,22.40
2024-03-20T11:22:38.880Z,23.25
2024-03-20T11:23:42.774Z,22.95
2024-03-20T11:24:44.736Z,22.16
2024-03-20T11:25:46.438Z,22.63
2024-03-20T11:26:48.241Z,23.05
2024-03-20T11:27:50.852Z,23.09
2024-03-20T11:28:52.710Z,22.51
2024-03-20T11:29:54.278Z,23.23
2024-03-20T11:30:55.939Z,23.39
2024-03-20T11:31:57.526Z,22.37
2024-03-20T11:32:59.178Z,21.40
2024-03-20T11:34:04.885Z,21.72
2024-03-20T11:35:11.359Z,21.81
2024-03-20T11:36:14.690Z,23.05
2024-03-20T11:37:19.463Z,22.17
2024-03-20T11:38:29.116Z,22.74
2024-03-20T11:39:30.761Z,21.96
2024-03-20T11:40:33.490Z,22.63
2024-03-20T11:41:38.128Z,22.57
2024-03-20T11:42:41.207Z,22.29
2024-03-20T11:43:44.110Z,22.06
2024-03-20T11:44:45.756Z,21.41
2024-03-20T11:45:48.010Z,20.97
2024-03-20T11:46:49.645Z,21.40
2024-03-20T11:47:52.153Z,21.71
2024-03-20T11:48:54.161Z,21.15
2024-03-20T11:49:56.895Z,22.42
2024-03-20T11:50:58.426Z,22.17
2024-03-20T11:52:04.225Z,22.25
2024-03-20T11:53:07.229Z,22.74
2024-03-20T11:54:09.988Z,21.53
2024-03-20T11:55:14.579Z,21.00
2024-03-20T11:56:17.674Z,22.01
2024-03-20T11:57:20.486Z,21.45
2024-03-20T11:58:22.084Z,22.41
2024-03-20T11:59:25.366Z,22.75
2024-03-20T12:00:27.132Z,21.66
2024-03-20T12:01:28.982Z,22.31
2024-03-20T12:02:35.439Z,22.46
2024-03-20T12:03:38.355Z,20.72
2024-03-20T12:04:39.916Z,20.72
2024-03-20T12:05:41.456Z,20.12
2024-03-20T12:06:42.984Z,21.60
2024-03-20T12:07:45.129Z,22.51
2024-03-20T12:08:46.783Z,23.01
2024-03-20T12:09:48.363Z,22.44
2024-03-20T12:10:49.873Z,21.45
2024-03-20T12:11:51.453Z,21.76
2024-03-20T12:12:53.156Z,21.11
2024-03-20T12:13:55.981Z,21.59
2024-03-20T12:15:00.308Z,22.19
2024-03-20T12:16:02.074Z,21.54
2024-03-20T12:17:05.792Z,22.03
2024-03-20T12:18:09.535Z,20.82
2024-03-20T12:19:11.176Z,20.57
2024-03-20T12:20:13.390Z,20.98
2024-03-20T12:21:16.927Z,21.50
2024-03-20T12:22:20.315Z,21.90
2024-03-20T12:23:23.941Z,21.25
2024-03-20T12:24:26.780Z,20.82
2024-03-20T12:25:28.396Z,21.80
2024-03-20T12:26:30.367Z,22.53
2024-03-20T12:27:32.009Z,21.29
2024-03-20T12:28:33.898Z,21.59
2024-03-20T12:29:35.708Z,21.71
2024-03-20T12:30:39.545Z,21.76
2024-03-20T12:31:41.378Z,21.67
2024-03-20T12:32:43.025Z,21.48
2024-03-20T12:33:45.200Z,20.84
2024-03-20T12:34:46.753Z,21.74
2024-03-20T12:35:48.598Z,22.76
2024-03-20T12:36:50.157Z,22.73
2024-03-20T12:37:51.975Z,23.41
2024-03-20T12:38:56.500Z,23.29
2024-03-20T12:39:58.448Z,23.37
2024-03-20T12:41:00.419Z,22.87
2024-03-20T12:42:03.020Z,22.54
2024-03-20T12:43:05.373Z,23.49
2024-03-20T12:44:10.016Z,22.69
2024-03-20T12:45:11.808Z,23.03
2024-03-20T12:46:13.937Z,23.91
2024-03-20T12:47:16.477Z,24.35
2024-03-20T12:48:19.132Z,23.77
2024-03-20T12:49:21.134Z,23.33
2024-03-20T12:50:22.793Z,23.38
2024-03-20T12:51:27.898Z,23.17
2024-03-20T12:52:30.218Z,23.34
2024-03-20T12:53:31.973Z,22.92
2024-03-20T12:54:33.518Z,21.89
2024-03-20T12:55:35.201Z,22.33
2024-03-20T12:56:36.725Z,23.43
2024-03-20T12:57:38.770Z,22.22
2024-03-20T12:58:40.477Z,22.42
2024-03-20T12:59:42.688Z,22.24
2024-03-20T13:00:45.350Z,22.75
2024-03-20T13:01:47.011Z,23.90
2024-03-20T13:02:49.075Z,22.73
2024-03-20T13:03:50.639Z,22.87
2024-03-20T13:04:52.799Z,23.78
2024-03-20T13:05:56.997Z,23.58
2024-03-20T13:06:58.598Z,22.59
2024-03-20T13:08:00.426Z,23.08
2024-03-20T13:09:07.499Z,22.43
2024-03-20T13:10:11.664Z,22.39
2024-03-20T13:11:13.399Z,22.50
2024-03-20T13:12:15.826Z,23.12
2024-03-20T13:13:22.835Z,24.40
2024-03-20T13:14:24.406Z,22.53
2024-03-20T13:15:25.918Z,23.81
2024-03-20T13:16:27.683Z,22.83
2024-03-20T13:17:29.489Z,22.51
2024-03-20T13:18:41.504Z,22.35
2024-03-20T13:19:43.023Z,23.34
2024-03-20T13:20:44.587Z,23.05
2024-03-20T13:21:49.208Z,23.06
2024-03-20T13:22:50.805Z,23.25
2024-03-20T13:24:00.731Z,23.88
2024-03-20T13:25:06.557Z,23.77
2024-03-20T13:26:13.747Z,23.32